Terminal Aerodrome Forecast
Issued by NWS Honolulu, HI

Home | Current Version | Previous Version | Text Only | Print | Product List | Glossary On
Versions: 1 2 3 4 5 6 7 8 9 10 11 12 13 14 15 16 17 18 19 20 21 22 23 24
000
FTPA31 PHFO 011120
TAFHNL
TAF
PHNL 011120Z 0112/0218 06010KT P6SM VCSH FEW030 SCT050
     FM012000 05014G22KT P6SM FEW030 SCT050
     FM020500 05011KT P6SM VCSH FEW030 SCT050=

USA.gov is the U.S. government's official web portal to all federal, state and local government web resources and services.